sensor_id;sensor_type;location;lat;lon;timestamp;P1;durP1;ratioP1;P2;durP2;ratioP2
56670;SDS011;42545;50.054;8.306;2022-12-07T00:01:18;7.18;;;4.18;;
56670;SDS011;42545;50.054;8.306;2022-12-07T00:03:47;10.07;;;5.07;;
56670;SDS011;42545;50.054;8.306;2022-12-07T00:06:16;9.63;;;4.85;;
56670;SDS011;42545;50.054;8.306;2022-12-07T00:08:44;8.40;;;4.95;;
56670;SDS011;42545;50.054;8.306;2022-12-07T00:11:14;10.57;;;5.50;;
56670;SDS011;42545;50.054;8.306;2022-12-07T00:13:42;10.73;;;5.78;;
56670;SDS011;42545;50.054;8.306;2022-12-07T00:16:10;15.43;;;6.85;;
56670;SDS011;42545;50.054;8.306;2022-12-07T00:18:39;15.00;;;7.53;;
56670;SDS011;42545;50.054;8.306;2022-12-07T00:21:10;17.65;;;7.75;;
56670;SDS011;42545;50.054;8.306;2022-12-07T00:23:38;16.02;;;7.65;;
56670;SDS011;42545;50.054;8.306;2022-12-07T00:26:06;14.77;;;7.20;;
56670;SDS011;42545;50.054;8.306;2022-12-07T00:28:36;13.40;;;6.55;;
56670;SDS011;42545;50.054;8.306;2022-12-07T00:31:03;14.13;;;6.68;;
56670;SDS011;42545;50.054;8.306;2022-12-07T00:33:32;9.93;;;5.43;;
56670;SDS011;42545;50.054;8.306;2022-12-07T00:35:59;13.90;;;6.82;;
56670;SDS011;42545;50.054;8.306;2022-12-07T00:38:27;11.10;;;5.82;;
56670;SDS011;42545;50.054;8.306;2022-12-07T00:40:56;10.80;;;5.70;;
56670;SDS011;42545;50.054;8.306;2022-12-07T00:43:24;10.43;;;5.43;;
56670;SDS011;42545;50.054;8.306;2022-12-07T00:45:52;19.77;;;9.77;;
56670;SDS011;42545;50.054;8.306;2022-12-07T00:48:21;17.67;;;8.05;;
56670;SDS011;42545;50.054;8.306;2022-12-07T00:50:50;15.57;;;7.78;;
56670;SDS011;42545;50.054;8.306;2022-12-07T00:53:18;15.30;;;7.75;;
56670;SDS011;42545;50.054;8.306;2022-12-07T00:55:46;13.23;;;6.70;;
56670;SDS011;42545;50.054;8.306;2022-12-07T00:58:14;13.27;;;6.57;;
56670;SDS011;42545;50.054;8.306;2022-12-07T01:00:43;12.65;;;6.80;;
56670;SDS011;42545;50.054;8.306;2022-12-07T01:03:13;12.85;;;5.97;;
56670;SDS011;42545;50.054;8.306;2022-12-07T01:05:48;11.25;;;5.85;;
56670;SDS011;42545;50.054;8.306;2022-12-07T01:08:16;10.50;;;5.43;;
56670;SDS011;42545;50.054;8.306;2022-12-07T01:10:44;10.13;;;5.40;;
56670;SDS011;42545;50.054;8.306;2022-12-07T01:13:11;12.43;;;6.10;;
56670;SDS011;42545;50.054;8.306;2022-12-07T01:15:39;15.15;;;7.90;;
56670;SDS011;42545;50.054;8.306;2022-12-07T01:18:07;16.13;;;7.68;;
56670;SDS011;42545;50.054;8.306;2022-12-07T01:20:35;13.40;;;6.32;;
56670;SDS011;42545;50.054;8.306;2022-12-07T01:23:03;12.90;;;6.82;;
56670;SDS011;42545;50.054;8.306;2022-12-07T01:25:30;14.32;;;8.20;;
56670;SDS011;42545;50.054;8.306;2022-12-07T01:27:57;13.45;;;7.15;;
56670;SDS011;42545;50.054;8.306;2022-12-07T01:30:24;10.27;;;5.75;;
56670;SDS011;42545;50.054;8.306;2022-12-07T01:32:51;12.40;;;6.43;;
56670;SDS011;42545;50.054;8.306;2022-12-07T01:35:17;8.02;;;4.72;;
56670;SDS011;42545;50.054;8.306;2022-12-07T01:37:46;10.27;;;5.22;;
56670;SDS011;42545;50.054;8.306;2022-12-07T01:40:13;6.88;;;4.00;;
56670;SDS011;42545;50.054;8.306;2022-12-07T01:42:39;9.63;;;4.80;;
56670;SDS011;42545;50.054;8.306;2022-12-07T01:45:31;7.05;;;3.65;;
56670;SDS011;42545;50.054;8.306;2022-12-07T01:48:07;7.65;;;4.78;;
56670;SDS011;42545;50.054;8.306;2022-12-07T01:50:37;7.65;;;4.18;;
56670;SDS011;42545;50.054;8.306;2022-12-07T01:53:08;7.15;;;3.95;;
56670;SDS011;42545;50.054;8.306;2022-12-07T01:55:38;5.68;;;3.55;;
56670;SDS011;42545;50.054;8.306;2022-12-07T01:58:11;5.80;;;3.35;;
56670;SDS011;42545;50.054;8.306;2022-12-07T02:00:39;6.28;;;3.33;;
56670;SDS011;42545;50.054;8.306;2022-12-07T02:03:08;6.57;;;3.45;;
56670;SDS011;42545;50.054;8.306;2022-12-07T02:08:08;5.97;;;3.20;;
56670;SDS011;42545;50.054;8.306;2022-12-07T02:10:38;6.75;;;3.70;;
56670;SDS011;42545;50.054;8.306;2022-12-07T02:13:06;7.25;;;3.75;;
56670;SDS011;42545;50.054;8.306;2022-12-07T02:15:45;5.88;;;3.47;;
56670;SDS011;42545;50.054;8.306;2022-12-07T02:18:32;6.18;;;3.88;;
56670;SDS011;42545;50.054;8.306;2022-12-07T02:21:10;5.85;;;2.95;;
56670;SDS011;42545;50.054;8.306;2022-12-07T02:23:51;5.63;;;3.35;;
56670;SDS011;42545;50.054;8.306;2022-12-07T02:26:41;7.13;;;3.55;;
56670;SDS011;42545;50.054;8.306;2022-12-07T02:29:37;5.03;;;2.70;;
56670;SDS011;42545;50.054;8.306;2022-12-07T02:32:07;5.97;;;3.20;;
56670;SDS011;42545;50.054;8.306;2022-12-07T02:34:40;4.88;;;2.58;;
56670;SDS011;42545;50.054;8.306;2022-12-07T02:37:17;4.97;;;2.58;;
56670;SDS011;42545;50.054;8.306;2022-12-07T02:39:53;3.97;;;2.33;;
56670;SDS011;42545;50.054;8.306;2022-12-07T02:42:25;3.33;;;2.10;;
56670;SDS011;42545;50.054;8.306;2022-12-07T02:45:01;4.22;;;2.35;;
56670;SDS011;42545;50.054;8.306;2022-12-07T02:47:28;2.60;;;1.88;;
56670;SDS011;42545;50.054;8.306;2022-12-07T02:49:58;4.07;;;2.40;;
56670;SDS011;42545;50.054;8.306;2022-12-07T02:52:25;3.28;;;1.80;;
56670;SDS011;42545;50.054;8.306;2022-12-07T02:54:52;2.80;;;2.10;;
56670;SDS011;42545;50.054;8.306;2022-12-07T02:57:27;3.50;;;1.77;;
56670;SDS011;42545;50.054;8.306;2022-12-07T03:00:09;3.50;;;1.98;;
56670;SDS011;42545;50.054;8.306;2022-12-07T03:02:45;2.85;;;1.65;;
56670;SDS011;42545;50.054;8.306;2022-12-07T03:05:22;2.80;;;1.80;;
56670;SDS011;42545;50.054;8.306;2022-12-07T03:07:59;3.22;;;1.90;;
56670;SDS011;42545;50.054;8.306;2022-12-07T03:10:33;2.50;;;1.63;;
56670;SDS011;42545;50.054;8.306;2022-12-07T03:13:09;2.63;;;1.65;;
56670;SDS011;42545;50.054;8.306;2022-12-07T03:15:47;2.90;;;1.70;;
56670;SDS011;42545;50.054;8.306;2022-12-07T03:18:20;2.58;;;1.60;;
56670;SDS011;42545;50.054;8.306;2022-12-07T03:20:51;1.73;;;1.30;;
56670;SDS011;42545;50.054;8.306;2022-12-07T03:23:21;1.90;;;1.20;;
56670;SDS011;42545;50.054;8.306;2022-12-07T03:25:52;2.63;;;1.40;;
56670;SDS011;42545;50.054;8.306;2022-12-07T03:28:24;2.28;;;1.52;;
56670;SDS011;42545;50.054;8.306;2022-12-07T03:30:56;3.70;;;2.03;;
56670;SDS011;42545;50.054;8.306;2022-12-07T03:33:28;3.55;;;2.05;;
56670;SDS011;42545;50.054;8.306;2022-12-07T03:35:59;2.85;;;1.80;;
56670;SDS011;42545;50.054;8.306;2022-12-07T03:38:31;2.83;;;1.80;;
56670;SDS011;42545;50.054;8.306;2022-12-07T03:41:04;6.35;;;4.20;;
56670;SDS011;42545;50.054;8.306;2022-12-07T03:43:33;4.18;;;2.90;;
56670;SDS011;42545;50.054;8.306;2022-12-07T03:46:06;5.30;;;3.22;;
56670;SDS011;42545;50.054;8.306;2022-12-07T03:48:43;6.10;;;4.05;;
56670;SDS011;42545;50.054;8.306;2022-12-07T03:51:18;8.43;;;4.50;;
56670;SDS011;42545;50.054;8.306;2022-12-07T03:53:50;6.80;;;4.35;;
56670;SDS011;42545;50.054;8.306;2022-12-07T03:56:25;7.03;;;4.30;;
56670;SDS011;42545;50.054;8.306;2022-12-07T03:58:55;4.90;;;3.05;;
56670;SDS011;42545;50.054;8.306;2022-12-07T04:01:24;6.72;;;3.08;;
56670;SDS011;42545;50.054;8.306;2022-12-07T04:03:53;5.22;;;3.40;;
56670;SDS011;42545;50.054;8.306;2022-12-07T04:06:21;5.10;;;3.30;;
56670;SDS011;42545;50.054;8.306;2022-12-07T04:08:48;4.40;;;2.80;;
56670;SDS011;42545;50.054;8.306;2022-12-07T04:11:15;5.00;;;3.13;;
56670;SDS011;42545;50.054;8.306;2022-12-07T04:13:42;4.32;;;2.35;;
56670;SDS011;42545;50.054;8.306;2022-12-07T04:16:28;4.57;;;2.53;;
56670;SDS011;42545;50.054;8.306;2022-12-07T04:18:54;4.47;;;2.55;;
56670;SDS011;42545;50.054;8.306;2022-12-07T04:21:22;4.55;;;3.00;;
56670;SDS011;42545;50.054;8.306;2022-12-07T04:23:49;4.55;;;2.65;;
56670;SDS011;42545;50.054;8.306;2022-12-07T04:26:16;4.40;;;2.47;;
56670;SDS011;42545;50.054;8.306;2022-12-07T04:28:43;4.10;;;2.58;;
56670;SDS011;42545;50.054;8.306;2022-12-07T04:31:11;4.28;;;2.78;;
56670;SDS011;42545;50.054;8.306;2022-12-07T04:33:40;4.07;;;2.28;;
56670;SDS011;42545;50.054;8.306;2022-12-07T04:36:07;4.90;;;3.28;;
56670;SDS011;42545;50.054;8.306;2022-12-07T04:38:34;4.18;;;2.75;;
56670;SDS011;42545;50.054;8.306;2022-12-07T04:41:04;4.72;;;3.17;;
56670;SDS011;42545;50.054;8.306;2022-12-07T04:43:32;4.47;;;2.30;;
56670;SDS011;42545;50.054;8.306;2022-12-07T04:45:59;3.67;;;2.22;;
56670;SDS011;42545;50.054;8.306;2022-12-07T04:48:26;3.95;;;2.30;;
56670;SDS011;42545;50.054;8.306;2022-12-07T04:50:55;3.45;;;2.22;;
56670;SDS011;42545;50.054;8.306;2022-12-07T04:53:22;3.55;;;2.22;;
56670;SDS011;42545;50.054;8.306;2022-12-07T04:55:49;2.88;;;1.98;;
56670;SDS011;42545;50.054;8.306;2022-12-07T04:58:16;3.58;;;2.10;;
56670;SDS011;42545;50.054;8.306;2022-12-07T05:00:43;2.25;;;1.50;;
56670;SDS011;42545;50.054;8.306;2022-12-07T05:03:09;3.15;;;2.10;;
56670;SDS011;42545;50.054;8.306;2022-12-07T05:05:39;3.30;;;1.85;;
56670;SDS011;42545;50.054;8.306;2022-12-07T05:10:35;2.47;;;1.52;;
56670;SDS011;42545;50.054;8.306;2022-12-07T05:13:02;3.30;;;2.20;;
56670;SDS011;42545;50.054;8.306;2022-12-07T05:15:29;7.15;;;3.55;;
56670;SDS011;42545;50.054;8.306;2022-12-07T05:17:56;11.77;;;6.55;;
56670;SDS011;42545;50.054;8.306;2022-12-07T05:20:24;6.20;;;3.55;;
56670;SDS011;42545;50.054;8.306;2022-12-07T05:22:51;6.50;;;3.35;;
56670;SDS011;42545;50.054;8.306;2022-12-07T05:25:19;7.10;;;3.72;;
56670;SDS011;42545;50.054;8.306;2022-12-07T05:27:46;6.60;;;3.47;;
56670;SDS011;42545;50.054;8.306;2022-12-07T05:30:14;6.07;;;3.80;;
56670;SDS011;42545;50.054;8.306;2022-12-07T05:32:41;4.72;;;2.95;;
56670;SDS011;42545;50.054;8.306;2022-12-07T05:35:08;5.93;;;3.25;;
56670;SDS011;42545;50.054;8.306;2022-12-07T05:37:35;6.80;;;3.47;;
56670;SDS011;42545;50.054;8.306;2022-12-07T05:40:02;5.50;;;3.33;;
56670;SDS011;42545;50.054;8.306;2022-12-07T05:42:34;5.47;;;3.28;;
56670;SDS011;42545;50.054;8.306;2022-12-07T05:45:03;6.38;;;4.03;;
56670;SDS011;42545;50.054;8.306;2022-12-07T05:47:31;6.15;;;3.47;;
56670;SDS011;42545;50.054;8.306;2022-12-07T05:49:58;11.75;;;7.22;;
56670;SDS011;42545;50.054;8.306;2022-12-07T05:52:25;9.38;;;4.95;;
56670;SDS011;42545;50.054;8.306;2022-12-07T05:54:52;13.82;;;8.13;;
56670;SDS011;42545;50.054;8.306;2022-12-07T05:57:20;9.43;;;5.13;;
56670;SDS011;42545;50.054;8.306;2022-12-07T05:59:48;9.50;;;5.43;;
56670;SDS011;42545;50.054;8.306;2022-12-07T06:02:15;10.02;;;6.10;;
56670;SDS011;42545;50.054;8.306;2022-12-07T06:04:43;10.68;;;5.45;;
56670;SDS011;42545;50.054;8.306;2022-12-07T06:07:13;9.77;;;5.83;;
56670;SDS011;42545;50.054;8.306;2022-12-07T06:09:42;11.25;;;5.75;;
56670;SDS011;42545;50.054;8.306;2022-12-07T06:12:09;9.27;;;4.63;;
56670;SDS011;42545;50.054;8.306;2022-12-07T06:14:56;12.55;;;8.15;;
56670;SDS011;42545;50.054;8.306;2022-12-07T06:17:24;10.85;;;6.30;;
56670;SDS011;42545;50.054;8.306;2022-12-07T06:19:50;9.35;;;5.35;;
56670;SDS011;42545;50.054;8.306;2022-12-07T06:22:17;22.02;;;11.73;;
56670;SDS011;42545;50.054;8.306;2022-12-07T06:24:44;16.55;;;8.90;;
56670;SDS011;42545;50.054;8.306;2022-12-07T06:27:11;14.35;;;8.43;;
56670;SDS011;42545;50.054;8.306;2022-12-07T06:29:38;15.32;;;8.85;;
56670;SDS011;42545;50.054;8.306;2022-12-07T06:32:06;13.20;;;7.28;;
56670;SDS011;42545;50.054;8.306;2022-12-07T06:34:33;13.27;;;7.40;;
56670;SDS011;42545;50.054;8.306;2022-12-07T06:37:00;11.32;;;6.90;;
56670;SDS011;42545;50.054;8.306;2022-12-07T06:39:27;11.02;;;6.40;;
56670;SDS011;42545;50.054;8.306;2022-12-07T06:41:55;9.93;;;5.75;;
56670;SDS011;42545;50.054;8.306;2022-12-07T06:44:22;9.02;;;5.70;;
56670;SDS011;42545;50.054;8.306;2022-12-07T06:46:50;12.02;;;6.32;;
56670;SDS011;42545;50.054;8.306;2022-12-07T06:49:19;9.57;;;5.20;;
56670;SDS011;42545;50.054;8.306;2022-12-07T06:51:45;13.50;;;7.13;;
56670;SDS011;42545;50.054;8.306;2022-12-07T06:54:13;16.50;;;7.55;;
56670;SDS011;42545;50.054;8.306;2022-12-07T06:56:40;11.15;;;6.20;;
56670;SDS011;42545;50.054;8.306;2022-12-07T06:59:07;11.43;;;5.97;;
56670;SDS011;42545;50.054;8.306;2022-12-07T07:01:35;10.52;;;5.82;;
56670;SDS011;42545;50.054;8.306;2022-12-07T07:04:02;11.55;;;5.97;;
56670;SDS011;42545;50.054;8.306;2022-12-07T07:06:31;9.45;;;5.57;;
56670;SDS011;42545;50.054;8.306;2022-12-07T07:08:58;11.40;;;6.18;;
56670;SDS011;42545;50.054;8.306;2022-12-07T07:11:24;11.45;;;6.18;;
56670;SDS011;42545;50.054;8.306;2022-12-07T07:13:52;14.52;;;7.85;;
56670;SDS011;42545;50.054;8.306;2022-12-07T07:16:21;12.45;;;6.60;;
56670;SDS011;42545;50.054;8.306;2022-12-07T07:18:50;14.10;;;7.63;;
56670;SDS011;42545;50.054;8.306;2022-12-07T07:21:17;14.10;;;7.63;;
56670;SDS011;42545;50.054;8.306;2022-12-07T07:23:45;14.48;;;8.18;;
56670;SDS011;42545;50.054;8.306;2022-12-07T07:26:12;11.18;;;6.93;;
56670;SDS011;42545;50.054;8.306;2022-12-07T07:28:42;10.55;;;6.45;;
56670;SDS011;42545;50.054;8.306;2022-12-07T07:31:12;12.32;;;7.55;;
56670;SDS011;42545;50.054;8.306;2022-12-07T07:33:38;10.13;;;6.07;;
56670;SDS011;42545;50.054;8.306;2022-12-07T07:36:06;11.40;;;6.07;;
56670;SDS011;42545;50.054;8.306;2022-12-07T07:38:33;10.30;;;5.47;;
56670;SDS011;42545;50.054;8.306;2022-12-07T07:41:01;9.73;;;5.72;;
56670;SDS011;42545;50.054;8.306;2022-12-07T07:43:28;10.18;;;5.75;;
56670;SDS011;42545;50.054;8.306;2022-12-07T07:45:56;8.10;;;4.82;;
56670;SDS011;42545;50.054;8.306;2022-12-07T07:48:24;10.02;;;5.60;;
56670;SDS011;42545;50.054;8.306;2022-12-07T07:50:50;8.05;;;4.70;;
56670;SDS011;42545;50.054;8.306;2022-12-07T07:53:17;7.50;;;4.35;;
56670;SDS011;42545;50.054;8.306;2022-12-07T07:55:49;7.70;;;4.50;;
56670;SDS011;42545;50.054;8.306;2022-12-07T07:58:21;7.47;;;3.88;;
56670;SDS011;42545;50.054;8.306;2022-12-07T08:00:52;5.53;;;3.58;;
56670;SDS011;42545;50.054;8.306;2022-12-07T08:03:20;5.75;;;3.20;;
56670;SDS011;42545;50.054;8.306;2022-12-07T08:05:47;5.97;;;3.63;;
56670;SDS011;42545;50.054;8.306;2022-12-07T08:08:15;6.57;;;3.42;;
56670;SDS011;42545;50.054;8.306;2022-12-07T08:10:42;4.80;;;3.00;;
56670;SDS011;42545;50.054;8.306;2022-12-07T08:13:09;4.90;;;2.75;;
56670;SDS011;42545;50.054;8.306;2022-12-07T08:15:42;5.90;;;3.45;;
56670;SDS011;42545;50.054;8.306;2022-12-07T08:18:11;5.35;;;3.05;;
56670;SDS011;42545;50.054;8.306;2022-12-07T08:20:40;4.80;;;2.65;;
56670;SDS011;42545;50.054;8.306;2022-12-07T08:23:08;5.72;;;3.45;;
56670;SDS011;42545;50.054;8.306;2022-12-07T08:25:35;4.35;;;3.13;;
56670;SDS011;42545;50.054;8.306;2022-12-07T08:28:02;7.07;;;4.10;;
56670;SDS011;42545;50.054;8.306;2022-12-07T08:30:30;6.03;;;3.55;;
56670;SDS011;42545;50.054;8.306;2022-12-07T08:33:00;8.30;;;4.53;;
56670;SDS011;42545;50.054;8.306;2022-12-07T08:35:26;8.55;;;4.53;;
56670;SDS011;42545;50.054;8.306;2022-12-07T08:37:54;6.55;;;4.13;;
56670;SDS011;42545;50.054;8.306;2022-12-07T08:40:22;7.07;;;4.25;;
56670;SDS011;42545;50.054;8.306;2022-12-07T08:42:50;6.97;;;4.57;;
56670;SDS011;42545;50.054;8.306;2022-12-07T08:45:17;5.57;;;3.60;;
56670;SDS011;42545;50.054;8.306;2022-12-07T08:47:48;14.15;;;7.50;;
56670;SDS011;42545;50.054;8.306;2022-12-07T08:50:20;12.63;;;6.63;;
56670;SDS011;42545;50.054;8.306;2022-12-07T08:52:49;12.93;;;6.55;;
56670;SDS011;42545;50.054;8.306;2022-12-07T08:57:47;12.52;;;6.50;;
56670;SDS011;42545;50.054;8.306;2022-12-07T09:00:15;12.98;;;7.32;;
56670;SDS011;42545;50.054;8.306;2022-12-07T09:02:43;11.65;;;6.47;;
56670;SDS011;42545;50.054;8.306;2022-12-07T09:05:10;12.23;;;6.95;;
56670;SDS011;42545;50.054;8.306;2022-12-07T09:07:41;13.65;;;7.95;;
56670;SDS011;42545;50.054;8.306;2022-12-07T09:10:09;14.98;;;8.65;;
56670;SDS011;42545;50.054;8.306;2022-12-07T09:12:38;11.57;;;7.40;;
56670;SDS011;42545;50.054;8.306;2022-12-07T09:17:35;13.25;;;7.95;;
56670;SDS011;42545;50.054;8.306;2022-12-07T09:20:03;12.75;;;7.47;;
56670;SDS011;42545;50.054;8.306;2022-12-07T09:22:30;13.27;;;7.50;;
56670;SDS011;42545;50.054;8.306;2022-12-07T09:25:00;10.73;;;6.13;;
56670;SDS011;42545;50.054;8.306;2022-12-07T09:27:28;16.98;;;6.63;;
56670;SDS011;42545;50.054;8.306;2022-12-07T09:29:55;10.65;;;6.10;;
56670;SDS011;42545;50.054;8.306;2022-12-07T09:32:22;12.90;;;6.75;;
56670;SDS011;42545;50.054;8.306;2022-12-07T09:34:49;11.80;;;6.35;;
56670;SDS011;42545;50.054;8.306;2022-12-07T09:37:16;10.82;;;5.90;;
56670;SDS011;42545;50.054;8.306;2022-12-07T09:39:42;9.63;;;5.50;;
56670;SDS011;42545;50.054;8.306;2022-12-07T09:42:13;13.38;;;5.57;;
56670;SDS011;42545;50.054;8.306;2022-12-07T09:44:52;9.00;;;4.95;;
56670;SDS011;42545;50.054;8.306;2022-12-07T09:47:19;13.10;;;4.80;;
56670;SDS011;42545;50.054;8.306;2022-12-07T09:49:47;7.60;;;4.72;;
56670;SDS011;42545;50.054;8.306;2022-12-07T09:52:18;7.40;;;4.85;;
56670;SDS011;42545;50.054;8.306;2022-12-07T09:54:49;6.60;;;4.40;;
56670;SDS011;42545;50.054;8.306;2022-12-07T09:57:18;8.45;;;4.55;;
56670;SDS011;42545;50.054;8.306;2022-12-07T09:59:52;7.72;;;4.72;;
56670;SDS011;42545;50.054;8.306;2022-12-07T10:02:28;6.88;;;4.07;;
56670;SDS011;42545;50.054;8.306;2022-12-07T10:05:03;7.10;;;4.30;;
56670;SDS011;42545;50.054;8.306;2022-12-07T10:07:31;5.88;;;4.03;;
56670;SDS011;42545;50.054;8.306;2022-12-07T10:10:03;6.05;;;4.15;;
56670;SDS011;42545;50.054;8.306;2022-12-07T10:12:42;6.05;;;3.42;;
56670;SDS011;42545;50.054;8.306;2022-12-07T10:15:20;5.20;;;3.35;;
56670;SDS011;42545;50.054;8.306;2022-12-07T10:17:49;4.65;;;3.60;;
56670;SDS011;42545;50.054;8.306;2022-12-07T10:20:18;5.47;;;3.72;;
56670;SDS011;42545;50.054;8.306;2022-12-07T10:22:55;4.18;;;3.05;;
56670;SDS011;42545;50.054;8.306;2022-12-07T10:25:25;9.40;;;3.00;;
56670;SDS011;42545;50.054;8.306;2022-12-07T10:28:01;4.60;;;3.00;;
56670;SDS011;42545;50.054;8.306;2022-12-07T10:30:50;6.78;;;3.45;;
56670;SDS011;42545;50.054;8.306;2022-12-07T10:33:28;6.55;;;3.08;;
56670;SDS011;42545;50.054;8.306;2022-12-07T10:35:57;7.10;;;3.00;;
56670;SDS011;42545;50.054;8.306;2022-12-07T10:38:26;8.10;;;3.25;;
56670;SDS011;42545;50.054;8.306;2022-12-07T10:41:02;4.23;;;2.97;;
56670;SDS011;42545;50.054;8.306;2022-12-07T10:43:31;12.80;;;3.08;;
56670;SDS011;42545;50.054;8.306;2022-12-07T10:46:10;3.55;;;2.42;;
56670;SDS011;42545;50.054;8.306;2022-12-07T10:48:49;6.15;;;3.10;;
56670;SDS011;42545;50.054;8.306;2022-12-07T10:51:26;5.68;;;2.40;;
56670;SDS011;42545;50.054;8.306;2022-12-07T10:54:04;6.00;;;2.78;;
56670;SDS011;42545;50.054;8.306;2022-12-07T10:56:43;3.25;;;2.17;;
56670;SDS011;42545;50.054;8.306;2022-12-07T10:59:23;8.98;;;2.90;;
56670;SDS011;42545;50.054;8.306;2022-12-07T11:02:06;5.38;;;2.40;;
56670;SDS011;42545;50.054;8.306;2022-12-07T11:04:43;3.85;;;1.77;;
56670;SDS011;42545;50.054;8.306;2022-12-07T11:07:22;6.75;;;2.08;;
56670;SDS011;42545;50.054;8.306;2022-12-07T11:10:02;4.57;;;2.03;;
56670;SDS011;42545;50.054;8.306;2022-12-07T11:12:39;2.72;;;1.70;;
56670;SDS011;42545;50.054;8.306;2022-12-07T11:15:18;6.45;;;2.22;;
56670;SDS011;42545;50.054;8.306;2022-12-07T11:17:53;4.55;;;2.22;;
56670;SDS011;42545;50.054;8.306;2022-12-07T11:20:35;3.10;;;1.90;;
56670;SDS011;42545;50.054;8.306;2022-12-07T11:23:12;7.65;;;2.00;;
56670;SDS011;42545;50.054;8.306;2022-12-07T11:25:48;3.05;;;1.77;;
56670;SDS011;42545;50.054;8.306;2022-12-07T11:28:32;8.18;;;2.33;;
56670;SDS011;42545;50.054;8.306;2022-12-07T11:31:17;4.00;;;1.63;;
56670;SDS011;42545;50.054;8.306;2022-12-07T11:33:52;8.52;;;2.08;;
56670;SDS011;42545;50.054;8.306;2022-12-07T11:36:33;7.15;;;2.45;;
56670;SDS011;42545;50.054;8.306;2022-12-07T11:39:09;5.03;;;2.08;;
56670;SDS011;42545;50.054;8.306;2022-12-07T11:41:52;2.72;;;1.90;;
56670;SDS011;42545;50.054;8.306;2022-12-07T11:44:25;6.75;;;2.00;;
56670;SDS011;42545;50.054;8.306;2022-12-07T11:46:58;3.83;;;1.80;;
56670;SDS011;42545;50.054;8.306;2022-12-07T11:49:35;4.70;;;1.83;;
56670;SDS011;42545;50.054;8.306;2022-12-07T11:52:11;4.05;;;1.60;;
56670;SDS011;42545;50.054;8.306;2022-12-07T11:54:46;4.82;;;1.80;;
56670;SDS011;42545;50.054;8.306;2022-12-07T11:59:47;2.42;;;1.50;;
56670;SDS011;42545;50.054;8.306;2022-12-07T12:02:19;2.17;;;1.60;;
56670;SDS011;42545;50.054;8.306;2022-12-07T12:04:53;4.85;;;2.05;;
56670;SDS011;42545;50.054;8.306;2022-12-07T12:07:26;3.65;;;1.77;;
56670;SDS011;42545;50.054;8.306;2022-12-07T12:09:55;3.78;;;1.95;;
56670;SDS011;42545;50.054;8.306;2022-12-07T12:12:35;3.83;;;1.83;;
56670;SDS011;42545;50.054;8.306;2022-12-07T12:15:18;6.78;;;1.90;;
56670;SDS011;42545;50.054;8.306;2022-12-07T12:18:04;5.00;;;1.92;;
56670;SDS011;42545;50.054;8.306;2022-12-07T12:20:43;5.32;;;1.77;;
56670;SDS011;42545;50.054;8.306;2022-12-07T12:23:16;4.53;;;1.80;;
56670;SDS011;42545;50.054;8.306;2022-12-07T12:25:48;3.55;;;2.42;;
56670;SDS011;42545;50.054;8.306;2022-12-07T12:28:20;4.25;;;2.22;;
56670;SDS011;42545;50.054;8.306;2022-12-07T12:31:04;4.95;;;2.75;;
56670;SDS011;42545;50.054;8.306;2022-12-07T12:33:34;7.65;;;2.65;;
56670;SDS011;42545;50.054;8.306;2022-12-07T12:36:24;4.45;;;2.10;;
56670;SDS011;42545;50.054;8.306;2022-12-07T12:39:09;5.00;;;2.53;;
56670;SDS011;42545;50.054;8.306;2022-12-07T12:41:52;7.05;;;2.50;;
56670;SDS011;42545;50.054;8.306;2022-12-07T12:44:40;4.68;;;2.70;;
56670;SDS011;42545;50.054;8.306;2022-12-07T12:50:25;4.47;;;2.30;;
56670;SDS011;42545;50.054;8.306;2022-12-07T12:52:59;2.88;;;1.98;;
56670;SDS011;42545;50.054;8.306;2022-12-07T12:58:43;2.10;;;1.50;;
56670;SDS011;42545;50.054;8.306;2022-12-07T13:01:33;2.92;;;1.63;;
56670;SDS011;42545;50.054;8.306;2022-12-07T13:04:23;3.22;;;1.88;;
56670;SDS011;42545;50.054;8.306;2022-12-07T13:06:53;5.20;;;1.90;;
56670;SDS011;42545;50.054;8.306;2022-12-07T13:09:23;5.70;;;1.75;;
56670;SDS011;42545;50.054;8.306;2022-12-07T13:11:58;2.33;;;1.52;;
56670;SDS011;42545;50.054;8.306;2022-12-07T13:14:40;3.88;;;1.30;;
56670;SDS011;42545;50.054;8.306;2022-12-07T13:23:08;2.60;;;1.40;;
56670;SDS011;42545;50.054;8.306;2022-12-07T13:25:41;6.13;;;1.70;;
56670;SDS011;42545;50.054;8.306;2022-12-07T13:28:16;2.15;;;1.23;;
56670;SDS011;42545;50.054;8.306;2022-12-07T13:30:46;1.50;;;1.20;;
56670;SDS011;42545;50.054;8.306;2022-12-07T13:33:20;4.00;;;1.48;;
56670;SDS011;42545;50.054;8.306;2022-12-07T13:35:48;3.10;;;1.80;;
56670;SDS011;42545;50.054;8.306;2022-12-07T13:38:23;4.82;;;1.42;;
56670;SDS011;42545;50.054;8.306;2022-12-07T13:41:02;5.05;;;1.85;;
56670;SDS011;42545;50.054;8.306;2022-12-07T13:43:47;4.80;;;2.00;;
56670;SDS011;42545;50.054;8.306;2022-12-07T13:46:17;5.80;;;2.28;;
56670;SDS011;42545;50.054;8.306;2022-12-07T13:48:46;3.40;;;1.90;;
56670;SDS011;42545;50.054;8.306;2022-12-07T13:51:19;4.70;;;2.43;;
56670;SDS011;42545;50.054;8.306;2022-12-07T13:53:51;3.67;;;1.73;;
56670;SDS011;42545;50.054;8.306;2022-12-07T13:56:26;6.63;;;1.90;;
56670;SDS011;42545;50.054;8.306;2022-12-07T13:58:57;4.50;;;2.03;;
56670;SDS011;42545;50.054;8.306;2022-12-07T14:01:25;3.50;;;1.80;;
56670;SDS011;42545;50.054;8.306;2022-12-07T14:03:52;6.63;;;2.10;;
56670;SDS011;42545;50.054;8.306;2022-12-07T14:06:23;5.30;;;1.77;;
56670;SDS011;42545;50.054;8.306;2022-12-07T14:09:16;5.40;;;1.40;;
56670;SDS011;42545;50.054;8.306;2022-12-07T14:11:49;2.08;;;1.25;;
56670;SDS011;42545;50.054;8.306;2022-12-07T14:14:19;4.05;;;1.55;;
56670;SDS011;42545;50.054;8.306;2022-12-07T14:17:01;4.40;;;1.90;;
56670;SDS011;42545;50.054;8.306;2022-12-07T14:19:47;4.30;;;1.80;;
56670;SDS011;42545;50.054;8.306;2022-12-07T14:22:24;2.88;;;1.38;;
56670;SDS011;42545;50.054;8.306;2022-12-07T14:25:00;2.58;;;1.40;;
56670;SDS011;42545;50.054;8.306;2022-12-07T14:27:58;4.93;;;2.00;;
56670;SDS011;42545;50.054;8.306;2022-12-07T14:30:26;2.95;;;1.58;;
56670;SDS011;42545;50.054;8.306;2022-12-07T14:32:57;2.23;;;1.40;;
56670;SDS011;42545;50.054;8.306;2022-12-07T14:35:26;5.50;;;1.90;;
56670;SDS011;42545;50.054;8.306;2022-12-07T14:37:56;4.82;;;1.48;;
56670;SDS011;42545;50.054;8.306;2022-12-07T14:40:24;5.20;;;1.70;;
56670;SDS011;42545;50.054;8.306;2022-12-07T14:42:55;2.78;;;1.45;;
56670;SDS011;42545;50.054;8.306;2022-12-07T14:45:28;3.45;;;1.73;;
56670;SDS011;42545;50.054;8.306;2022-12-07T14:47:55;3.15;;;1.88;;
56670;SDS011;42545;50.054;8.306;2022-12-07T14:50:22;5.40;;;1.92;;
56670;SDS011;42545;50.054;8.306;2022-12-07T14:52:50;4.88;;;1.80;;
56670;SDS011;42545;50.054;8.306;2022-12-07T14:55:22;4.32;;;1.55;;
56670;SDS011;42545;50.054;8.306;2022-12-07T14:57:51;2.25;;;1.67;;
56670;SDS011;42545;50.054;8.306;2022-12-07T15:00:21;3.03;;;1.58;;
56670;SDS011;42545;50.054;8.306;2022-12-07T15:02:49;5.90;;;1.80;;
56670;SDS011;42545;50.054;8.306;2022-12-07T15:05:18;4.45;;;1.63;;
56670;SDS011;42545;50.054;8.306;2022-12-07T15:07:46;3.13;;;1.27;;
56670;SDS011;42545;50.054;8.306;2022-12-07T15:10:16;2.28;;;1.42;;
56670;SDS011;42545;50.054;8.306;2022-12-07T15:12:46;6.55;;;2.17;;
56670;SDS011;42545;50.054;8.306;2022-12-07T15:15:13;3.38;;;1.73;;
56670;SDS011;42545;50.054;8.306;2022-12-07T15:17:43;3.72;;;2.28;;
56670;SDS011;42545;50.054;8.306;2022-12-07T15:20:11;4.78;;;2.22;;
56670;SDS011;42545;50.054;8.306;2022-12-07T15:22:39;3.88;;;1.48;;
56670;SDS011;42545;50.054;8.306;2022-12-07T15:25:07;8.48;;;2.40;;
56670;SDS011;42545;50.054;8.306;2022-12-07T15:27:41;3.42;;;1.88;;
56670;SDS011;42545;50.054;8.306;2022-12-07T15:30:08;3.30;;;1.70;;
56670;SDS011;42545;50.054;8.306;2022-12-07T15:32:36;2.08;;;1.50;;